createdAt,value
2023-05-02T00:04:47.880Z,2.92
2023-05-02T00:10:13.835Z,3.78
2023-05-02T00:15:40.852Z,2.60
2023-05-02T00:21:05.875Z,3.30
2023-05-02T00:26:31.860Z,2.50
2023-05-02T00:32:05.842Z,2.63
2023-05-02T00:37:30.830Z,2.80
2023-05-02T00:42:54.906Z,2.90
2023-05-02T00:48:24.956Z,3.67
2023-05-02T00:53:49.855Z,2.72
2023-05-02T00:59:16.927Z,3.53
2023-05-02T01:04:55.842Z,4.93
2023-05-02T01:10:30.901Z,2.72
2023-05-02T01:15:58.907Z,4.15
2023-05-02T01:21:26.907Z,2.38
2023-05-02T01:27:02.879Z,2.88
2023-05-02T01:32:39.928Z,3.72
2023-05-02T01:38:07.920Z,4.63
2023-05-02T01:43:36.890Z,3.40
2023-05-02T01:49:06.979Z,3.13
2023-05-02T01:54:32.883Z,3.58
2023-05-02T02:00:07.929Z,6.45
2023-05-02T02:05:37.925Z,2.72
2023-05-02T02:11:08.952Z,3.15
2023-05-02T02:16:38.934Z,2.50
2023-05-02T02:22:07.047Z,2.85
2023-05-02T02:27:37.933Z,2.95
2023-05-02T02:33:02.980Z,2.50
2023-05-02T02:38:39.962Z,4.22
2023-05-02T02:44:13.699Z,3.33
2023-05-02T02:49:49.037Z,2.22
2023-05-02T02:55:22.930Z,3.10
2023-05-02T03:00:49.902Z,3.13
2023-05-02T03:06:15.998Z,2.45
2023-05-02T03:11:45.959Z,3.72
2023-05-02T03:17:10.982Z,3.88
2023-05-02T03:22:35.954Z,3.40
2023-05-02T03:28:03.968Z,3.03
2023-05-02T03:33:30.934Z,2.30
2023-05-02T03:38:55.990Z,4.35
2023-05-02T03:44:23.933Z,4.50
2023-05-02T03:49:49.977Z,3.70
2023-05-02T03:55:16.005Z,2.50
2023-05-02T04:00:44.932Z,3.22
2023-05-02T04:06:12.008Z,2.63
2023-05-02T04:11:41.952Z,3.50
2023-05-02T04:17:13.069Z,2.92
2023-05-02T04:22:39.961Z,3.17
2023-05-02T04:28:03.955Z,4.13
2023-05-02T04:33:32.152Z,5.15
2023-05-02T04:38:56.982Z,2.92
2023-05-02T04:44:24.983Z,3.92
2023-05-02T04:49:52.975Z,2.55
2023-05-02T04:55:18.968Z,2.47
2023-05-02T05:00:45.006Z,3.35
2023-05-02T05:06:13.216Z,3.92
2023-05-02T05:11:38.994Z,3.08
2023-05-02T05:17:04.999Z,2.90
2023-05-02T05:22:32.009Z,3.17
2023-05-02T05:27:58.987Z,2.70
2023-05-02T05:33:28.036Z,3.03
2023-05-02T05:38:57.023Z,2.70
2023-05-02T05:44:24.055Z,2.95
2023-05-02T05:49:49.026Z,2.90
2023-05-02T05:55:20.036Z,2.60
2023-05-02T06:00:46.047Z,2.58
2023-05-02T06:06:10.066Z,2.50
2023-05-02T06:11:38.048Z,3.33
2023-05-02T06:17:03.006Z,2.50
2023-05-02T06:22:28.025Z,2.47
2023-05-02T06:27:55.016Z,2.80
2023-05-02T06:33:20.118Z,3.25
2023-05-02T06:38:44.048Z,2.58
2023-05-02T06:44:12.029Z,3.55
2023-05-02T06:49:36.110Z,2.47
2023-05-02T06:55:01.063Z,3.08
2023-05-02T07:00:30.053Z,4.47
2023-05-02T07:05:55.029Z,4.00
2023-05-02T07:11:19.049Z,3.13
2023-05-02T07:16:47.263Z,3.58
2023-05-02T07:22:11.026Z,3.47
2023-05-02T07:27:36.047Z,2.70
2023-05-02T07:33:11.128Z,2.33
2023-05-02T07:38:37.270Z,2.55
2023-05-02T07:44:01.108Z,3.08
2023-05-02T07:49:29.128Z,2.20
2023-05-02T07:54:53.139Z,3.22
2023-05-02T08:00:19.251Z,3.60
2023-05-02T08:05:49.357Z,2.00
2023-05-02T08:11:14.129Z,3.25
2023-05-02T08:16:38.473Z,2.47
2023-05-02T08:22:06.379Z,3.05
2023-05-02T08:27:30.115Z,2.03
2023-05-02T08:33:02.226Z,3.20
2023-05-02T08:38:30.295Z,2.28
2023-05-02T08:43:55.107Z,3.05
2023-05-02T08:49:21.355Z,3.08
2023-05-02T08:54:48.086Z,3.38
2023-05-02T09:00:15.115Z,3.63
2023-05-02T09:05:41.250Z,3.42
2023-05-02T09:11:09.387Z,3.53
2023-05-02T09:16:36.123Z,7.65
2023-05-02T09:22:02.512Z,3.83
2023-05-02T09:27:29.146Z,4.38
2023-05-02T09:33:05.139Z,6.57
2023-05-02T09:38:30.150Z,3.63
2023-05-02T09:43:58.145Z,6.03
2023-05-02T09:49:25.113Z,7.63
2023-05-02T09:54:54.138Z,3.88
2023-05-02T10:00:26.236Z,4.38
2023-05-02T10:05:52.142Z,5.85
2023-05-02T10:11:19.217Z,4.13
2023-05-02T10:16:48.187Z,5.88
2023-05-02T10:22:14.426Z,4.28
2023-05-02T10:27:38.178Z,4.25
2023-05-02T10:33:45.590Z,3.38
2023-05-02T10:39:13.171Z,4.20
2023-05-02T10:44:48.204Z,3.50
2023-05-02T10:50:17.185Z,3.05
2023-05-02T10:55:41.191Z,3.95
2023-05-02T11:01:46.200Z,3.55
2023-05-02T11:07:34.173Z,5.13
2023-05-02T11:13:00.187Z,2.80
2023-05-02T11:18:28.200Z,3.05
2023-05-02T11:23:53.190Z,2.55
2023-05-02T11:29:17.171Z,3.53
2023-05-02T11:40:07.198Z,2.50
2023-05-02T11:45:33.192Z,2.42
2023-05-02T11:50:58.214Z,2.25
2023-05-02T11:56:26.285Z,2.72
2023-05-02T12:01:50.202Z,2.25
2023-05-02T12:07:15.286Z,3.08
2023-05-02T12:12:43.278Z,0.90
2023-05-02T12:18:09.335Z,0.60
2023-05-02T12:23:37.673Z,0.82
2023-05-02T12:29:07.364Z,0.63
2023-05-02T12:34:50.197Z,0.50
2023-05-02T12:40:33.236Z,0.88
2023-05-02T12:46:20.616Z,0.50
2023-05-02T12:51:46.265Z,0.60
2023-05-02T12:57:11.268Z,0.45
2023-05-02T13:02:47.293Z,0.38
2023-05-02T13:08:13.249Z,0.40
2023-05-02T13:13:38.253Z,0.60
2023-05-02T13:19:06.323Z,1.75
2023-05-02T13:24:31.325Z,0.85
2023-05-02T13:29:57.374Z,0.40
2023-05-02T13:35:28.324Z,0.50
2023-05-02T13:40:53.278Z,0.73
2023-05-02T13:46:18.512Z,0.85
2023-05-02T13:51:46.264Z,1.15
2023-05-02T13:57:11.331Z,2.50
2023-05-02T14:02:37.497Z,1.45
2023-05-02T14:08:04.395Z,2.38
2023-05-02T14:13:29.446Z,1.90
2023-05-02T14:18:54.554Z,2.90
2023-05-02T14:24:23.319Z,2.55
2023-05-02T14:29:47.301Z,2.17
2023-05-02T14:35:12.551Z,4.75
2023-05-02T14:40:40.580Z,5.45
2023-05-02T14:46:06.412Z,4.82
2023-05-02T14:51:30.284Z,7.50
2023-05-02T14:56:59.628Z,5.13
2023-05-02T15:02:24.397Z,5.80
2023-05-02T15:07:50.309Z,6.22
2023-05-02T15:13:17.672Z,6.50
2023-05-02T15:18:44.324Z,6.00
2023-05-02T15:24:09.342Z,3.95
2023-05-02T15:29:37.303Z,6.40
2023-05-02T15:35:02.314Z,5.20
2023-05-02T15:40:27.373Z,6.38
2023-05-02T15:45:54.437Z,6.32
2023-05-02T15:51:20.359Z,4.95
2023-05-02T15:56:46.369Z,8.80
2023-05-02T16:02:14.776Z,5.88
2023-05-02T16:07:38.388Z,8.20
2023-05-02T16:12:56.365Z,7.72
2023-05-02T16:18:24.359Z,7.70
2023-05-02T16:23:48.357Z,9.65
2023-05-02T16:29:13.335Z,7.47
2023-05-02T16:34:41.353Z,7.28
2023-05-02T16:40:08.566Z,6.50
2023-05-02T16:45:34.567Z,7.40
2023-05-02T16:51:04.097Z,6.45
2023-05-02T16:56:28.386Z,6.47
2023-05-02T17:01:54.388Z,4.93
2023-05-02T17:07:22.351Z,5.05
2023-05-02T17:12:48.377Z,5.65
2023-05-02T17:18:14.482Z,7.65
2023-05-02T17:23:42.637Z,5.60
2023-05-02T17:29:08.577Z,4.47
2023-05-02T17:34:35.386Z,4.57
2023-05-02T17:40:02.744Z,8.52
2023-05-02T17:45:28.405Z,6.25
2023-05-02T17:50:55.436Z,4.47
2023-05-02T17:56:25.407Z,4.93
2023-05-02T18:01:50.535Z,5.60
2023-05-02T18:07:09.663Z,6.13
2023-05-02T18:12:38.742Z,4.28
2023-05-02T18:18:03.494Z,3.08
2023-05-02T18:23:28.418Z,3.97
2023-05-02T18:28:59.690Z,6.57
2023-05-02T18:34:24.416Z,2.83
2023-05-02T18:39:50.756Z,3.58
2023-05-02T18:45:25.442Z,3.22
2023-05-02T18:50:51.444Z,4.47
2023-05-02T18:56:17.435Z,3.65
2023-05-02T19:01:45.462Z,3.47
2023-05-02T19:07:09.610Z,5.68
2023-05-02T19:12:34.459Z,6.18
2023-05-02T19:18:03.448Z,7.35
2023-05-02T19:23:22.449Z,4.80
2023-05-02T19:28:47.452Z,3.45
2023-05-02T19:34:14.441Z,5.45
2023-05-02T19:39:39.452Z,3.65
2023-05-02T19:45:05.545Z,4.35
2023-05-02T19:50:35.464Z,5.03
2023-05-02T19:56:00.452Z,2.45
2023-05-02T20:01:25.502Z,3.85
2023-05-02T20:06:52.798Z,3.95
2023-05-02T20:12:17.488Z,4.45
2023-05-02T20:17:41.854Z,3.30
2023-05-02T20:23:09.442Z,9.20
2023-05-02T20:28:34.475Z,5.40
2023-05-02T20:33:59.497Z,3.83
2023-05-02T20:39:28.512Z,6.40
2023-05-02T20:44:56.471Z,9.23
2023-05-02T20:50:27.506Z,4.50
2023-05-02T20:55:55.489Z,4.40
2023-05-02T21:01:21.506Z,3.80
2023-05-02T21:06:46.591Z,5.70
2023-05-02T21:12:14.843Z,3.70
2023-05-02T21:17:39.619Z,4.45
2023-05-02T21:23:03.523Z,3.95
2023-05-02T21:28:31.509Z,2.90
2023-05-02T21:34:03.533Z,2.88
2023-05-02T21:39:28.507Z,2.50
2023-05-02T21:44:56.677Z,2.63
2023-05-02T21:50:27.535Z,1.60
2023-05-02T21:55:53.536Z,1.70
2023-05-02T22:01:20.571Z,3.05
2023-05-02T22:06:45.651Z,1.33
2023-05-02T22:12:10.537Z,2.45
2023-05-02T22:17:38.532Z,2.20
2023-05-02T22:23:04.535Z,3.05
2023-05-02T22:28:29.548Z,2.60
2023-05-02T22:33:58.518Z,4.28
2023-05-02T22:39:23.558Z,3.53
2023-05-02T22:44:53.998Z,1.92
2023-05-02T22:50:28.782Z,2.80
2023-05-02T22:55:53.584Z,2.45
2023-05-02T23:01:18.598Z,1.85
2023-05-02T23:06:46.562Z,2.55
2023-05-02T23:12:12.529Z,2.95
2023-05-02T23:17:37.938Z,2.47
2023-05-02T23:23:04.542Z,2.90
2023-05-02T23:28:30.562Z,2.30
2023-05-02T23:33:56.569Z,2.85
2023-05-02T23:39:24.607Z,2.83
2023-05-02T23:44:50.580Z,3.42
2023-05-02T23:50:23.561Z,1.60
2023-05-02T23:55:57.570Z,2.63
